Time,TemperatureF,DewpointF,PressureIn,WindDirection,WindDirectionDegrees,WindSpeedMPH,WindSpeedGustMPH,Humidity,HourlyPrecipIn,Conditions,Clouds,dailyrainin,SoftwareType,DateUTC
2013-06-06 00:13:00,51.5,49.0,29.92,WSW,254,0.0,0.0,90,0.00,,,0.00,weatherlink.com 1.10,2013-06-06 07:13:00,
2013-06-06 00:28:00,51.4,49.0,29.92,West,279,0.0,2.0,90,0.00,,,0.00,weatherlink.com 1.10,2013-06-06 07:28:00,
2013-06-06 00:43:00,51.3,49.0,29.92,West,264,0.0,2.0,90,0.00,,,0.00,weatherlink.com 1.10,2013-06-06 07:43:00,
2013-06-06 00:58:00,51.3,49.0,29.91,West,264,0.0,0.0,90,0.00,,,0.00,weatherlink.com 1.10,2013-06-06 07:58:00,
2013-06-06 01:13:00,51.1,48.0,29.91,WSW,249,0.0,2.0,90,0.00,,,0.00,weatherlink.com 1.10,2013-06-06 08:13:00,
2013-06-06 01:28:00,51.0,49.0,29.91,WSW,249,0.0,0.0,91,0.00,,,0.00,weatherlink.com 1.10,2013-06-06 08:28:00,
2013-06-06 01:43:00,51.1,49.0,29.91,WSW,249,0.0,0.0,91,0.00,,,0.00,weatherlink.com 1.10,2013-06-06 08:43:00,
2013-06-06 01:58:00,51.2,49.0,29.91,WSW,249,0.0,0.0,91,0.00,,,0.00,weatherlink.com 1.10,2013-06-06 08:58:00,
2013-06-06 02:13:00,51.2,49.0,29.91,WSW,249,0.0,1.0,91,0.00,,,0.00,weatherlink.com 1.10,2013-06-06 09:13:00,
2013-06-06 02:28:00,51.1,49.0,29.91,WSW,249,0.0,0.0,91,0.00,,,0.00,weatherlink.com 1.10,2013-06-06 09:28:00,
2013-06-06 02:43:00,50.9,48.0,29.91,WSW,249,0.0,1.0,91,0.00,,,0.00,weatherlink.com 1.10,2013-06-06 09:43:00,
2013-06-06 02:58:00,50.7,48.0,29.91,WSW,249,0.0,0.0,91,0.00,,,0.00,weatherlink.com 1.10,2013-06-06 09:58:00,
2013-06-06 03:13:00,50.6,48.0,29.91,WSW,249,0.0,0.0,91,0.00,,,0.00,weatherlink.com 1.10,2013-06-06 10:13:00,
2013-06-06 03:28:00,50.5,48.0,29.90,WSW,249,0.0,1.0,92,0.00,,,0.00,weatherlink.com 1.10,2013-06-06 10:28:00,
2013-06-06 03:43:00,50.4,48.0,29.90,WSW,249,0.0,0.0,92,0.00,,,0.00,weatherlink.com 1.10,2013-06-06 10:43:00,
2013-06-06 03:58:00,50.4,48.0,29.90,WSW,249,0.0,1.0,92,0.00,,,0.00,weatherlink.com 1.10,2013-06-06 10:58:00,
2013-06-06 04:13:00,50.4,48.0,29.90,West,271,2.0,2.0,92,0.00,,,0.00,weatherlink.com 1.10,2013-06-06 11:13:00,
2013-06-06 04:28:00,50.4,48.0,29.90,West,275,0.0,1.0,92,0.00,,,0.00,weatherlink.com 1.10,2013-06-06 11:28:00,
2013-06-06 04:43:00,50.1,48.0,29.90,West,281,0.0,3.0,92,0.00,,,0.00,weatherlink.com 1.10,2013-06-06 11:43:00,
2013-06-06 04:58:00,49.9,47.0,29.90,WNW,293,0.0,3.0,91,0.00,,,0.00,weatherlink.com 1.10,2013-06-06 11:58:00,
2013-06-06 05:13:00,49.9,47.0,29.90,WNW,292,0.0,1.0,91,0.00,,,0.00,weatherlink.com 1.10,2013-06-06 12:13:00,
2013-06-06 05:28:00,50.0,48.0,29.91,WNW,283,0.0,0.0,91,0.00,,,0.00,weatherlink.com 1.10,2013-06-06 12:28:00,
2013-06-06 05:43:00,49.9,47.0,29.91,WNW,283,0.0,1.0,91,0.00,,,0.00,weatherlink.com 1.10,2013-06-06 12:43:00,
2013-06-06 05:58:00,49.8,47.0,29.91,WNW,283,0.0,1.0,91,0.00,,,0.00,weatherlink.com 1.10,2013-06-06 12:58:00,
2013-06-06 06:13:00,49.9,47.0,29.91,WNW,283,0.0,0.0,91,0.00,,,0.00,weatherlink.com 1.10,2013-06-06 13:13:00,
2013-06-06 06:28:00,50.0,48.0,29.91,WNW,283,0.0,0.0,91,0.00,,,0.00,weatherlink.com 1.10,2013-06-06 13:28:00,
2013-06-06 06:43:00,50.0,48.0,29.91,WNW,289,0.0,1.0,91,0.00,,,0.00,weatherlink.com 1.10,2013-06-06 13:43:00,
2013-06-06 06:58:00,50.2,48.0,29.91,WNW,297,0.0,1.0,92,0.00,,,0.00,weatherlink.com 1.10,2013-06-06 13:58:00,
2013-06-06 07:13:00,50.4,48.0,29.91,NW,317,0.0,2.0,92,0.00,,,0.00,weatherlink.com 1.10,2013-06-06 14:13:00,
2013-06-06 07:28:00,50.7,49.0,29.92,NW,315,0.0,0.0,92,0.00,,,0.00,weatherlink.com 1.10,2013-06-06 14:28:00,
2013-06-06 07:43:00,51.2,49.0,29.92,NNE,29,0.0,1.0,91,0.00,,,0.00,weatherlink.com 1.10,2013-06-06 14:43:00,
2013-06-06 07:58:00,51.5,49.0,29.92,West,265,0.0,2.0,91,0.00,,,0.00,weatherlink.com 1.10,2013-06-06 14:58:00,
2013-06-06 08:13:00,51.9,49.0,29.92,West,263,0.0,3.0,90,0.00,,,0.00,weatherlink.com 1.10,2013-06-06 15:13:00,
2013-06-06 08:28:00,52.6,50.0,29.93,NNW,335,0.0,2.0,89,0.00,,,0.00,weatherlink.com 1.10,2013-06-06 15:28:00,
2013-06-06 08:43:00,53.2,50.0,29.93,WSW,246,0.0,1.0,88,0.00,,,0.00,weatherlink.com 1.10,2013-06-06 15:43:00,
2013-06-06 08:59:00,53.8,50.0,29.93,WSW,246,0.0,1.0,87,0.00,,,0.00,weatherlink.com 1.10,2013-06-06 15:59:00,
2013-06-06 09:14:00,54.8,50.0,29.92,WNW,283,0.0,3.0,85,0.00,,,0.00,weatherlink.com 1.10,2013-06-06 16:14:00,
2013-06-06 09:29:00,55.2,51.0,29.93,WNW,301,0.0,3.0,84,0.00,,,0.00,weatherlink.com 1.10,2013-06-06 16:29:00,
2013-06-06 09:44:00,56.1,51.0,29.92,WNW,294,0.0,1.0,83,0.00,,,0.00,weatherlink.com 1.10,2013-06-06 16:44:00,
2013-06-06 09:59:00,57.5,52.0,29.92,SSW,194,0.0,1.0,81,0.00,,,0.00,weatherlink.com 1.10,2013-06-06 16:59:00,
2013-06-06 10:14:00,58.1,52.0,29.91,WSW,245,0.0,3.0,81,0.00,,,0.00,weatherlink.com 1.10,2013-06-06 17:14:00,
2013-06-06 10:29:00,60.5,54.0,29.91,WSW,238,0.0,4.0,80,0.00,,,0.00,weatherlink.com 1.10,2013-06-06 17:29:00,
2013-06-06 10:44:00,62.1,54.0,29.91,WSW,252,0.0,4.0,75,0.00,,,0.00,weatherlink.com 1.10,2013-06-06 17:44:00,
2013-06-06 10:59:00,62.6,55.0,29.91,SSW,196,1.0,4.0,75,0.00,,,0.00,weatherlink.com 1.10,2013-06-06 17:59:00,
2013-06-06 11:14:00,63.2,55.0,29.91,West,272,0.0,5.0,74,0.00,,,0.00,weatherlink.com 1.10,2013-06-06 18:14:00,
2013-06-06 11:29:00,64.1,55.0,29.91,WSW,247,4.0,5.0,72,0.00,,,0.00,weatherlink.com 1.10,2013-06-06 18:29:00,
2013-06-06 11:44:00,64.7,55.0,29.91,WSW,246,2.0,5.0,72,0.00,,,0.00,weatherlink.com 1.10,2013-06-06 18:44:00,
2013-06-06 11:59:00,65.7,56.0,29.90,SW,231,0.0,4.0,70,0.00,,,0.00,weatherlink.com 1.10,2013-06-06 18:59:00,
2013-06-06 12:14:00,67.4,56.0,29.90,West,261,0.0,4.0,68,0.00,,,0.00,weatherlink.com 1.10,2013-06-06 19:14:00,
2013-06-06 12:29:00,68.7,57.0,29.90,SW,223,0.0,6.0,66,0.00,,,0.00,weatherlink.com 1.10,2013-06-06 19:29:00,
2013-06-06 12:44:00,69.5,57.0,29.89,SSE,162,0.0,3.0,64,0.00,,,0.00,weatherlink.com 1.10,2013-06-06 19:44:00,
2013-06-06 12:59:00,70.4,57.0,29.88,ESE,123,0.0,3.0,63,0.00,,,0.00,weatherlink.com 1.10,2013-06-06 19:59:00,
2013-06-06 13:14:00,71.6,58.0,29.88,South,186,0.0,3.0,63,0.00,,,0.00,weatherlink.com 1.10,2013-06-06 20:14:00,
2013-06-06 13:29:00,72.1,58.0,29.88,WSW,248,0.0,7.0,61,0.00,,,0.00,weatherlink.com 1.10,2013-06-06 20:29:00,
2013-06-06 13:44:00,72.4,58.0,29.87,SW,220,1.0,3.0,60,0.00,,,0.00,weatherlink.com 1.10,2013-06-06 20:44:00,
2013-06-06 13:59:00,73.9,59.0,29.86,WSW,244,0.0,5.0,60,0.00,,,0.00,weatherlink.com 1.10,2013-06-06 20:59:00,
2013-06-06 14:15:00,74.6,59.0,29.86,SSW,204,1.0,3.0,59,0.00,,,0.00,weatherlink.com 1.10,2013-06-06 21:15:00,
2013-06-06 14:30:00,76.1,59.0,29.85,ESE,118,1.0,4.0,56,0.00,,,0.00,weatherlink.com 1.10,2013-06-06 21:30:00,
2013-06-06 14:45:00,76.8,59.0,29.85,WSW,249,1.0,3.0,55,0.00,,,0.00,weatherlink.com 1.10,2013-06-06 21:45:00,
2013-06-06 15:00:00,75.3,58.0,29.84,SW,236,3.0,5.0,56,0.00,,,0.00,weatherlink.com 1.10,2013-06-06 22:00:00,
2013-06-06 15:15:00,74.7,58.0,29.84,WSW,248,1.0,6.0,57,0.00,,,0.00,weatherlink.com 1.10,2013-06-06 22:15:00,
2013-06-06 15:30:00,75.5,59.0,29.83,SW,219,0.0,5.0,56,0.00,,,0.00,weatherlink.com 1.10,2013-06-06 22:30:00,
2013-06-06 15:45:00,75.0,59.0,29.83,SSW,209,0.0,6.0,57,0.00,,,0.00,weatherlink.com 1.10,2013-06-06 22:45:00,
2013-06-06 16:00:00,74.0,58.0,29.82,SW,230,0.0,6.0,57,0.00,,,0.00,weatherlink.com 1.10,2013-06-06 23:00:00,
2013-06-06 16:15:00,72.4,57.0,29.82,SW,219,1.0,8.0,58,0.00,,,0.00,weatherlink.com 1.10,2013-06-06 23:15:00,
2013-06-06 16:30:00,72.6,57.0,29.82,SW,222,1.0,7.0,58,0.00,,,0.00,weatherlink.com 1.10,2013-06-06 23:30:00,
2013-06-06 16:45:00,72.9,58.0,29.81,WSW,241,0.0,4.0,59,0.00,,,0.00,weatherlink.com 1.10,2013-06-06 23:45:00,
2013-06-06 17:00:00,71.9,57.0,29.81,SSW,208,0.0,7.0,59,0.00,,,0.00,weatherlink.com 1.10,2013-06-07 00:00:00,
2013-06-06 17:15:00,70.7,56.0,29.80,SW,226,0.0,3.0,61,0.00,,,0.00,weatherlink.com 1.10,2013-06-07 00:15:00,
2013-06-06 17:30:00,70.8,56.0,29.80,SE,140,0.0,3.0,60,0.00,,,0.00,weatherlink.com 1.10,2013-06-07 00:30:00,
2013-06-06 17:45:00,70.3,56.0,29.80,SW,229,1.0,4.0,60,0.00,,,0.00,weatherlink.com 1.10,2013-06-07 00:45:00,
2013-06-06 18:00:00,69.9,56.0,29.80,SSE,155,0.0,4.0,61,0.00,,,0.00,weatherlink.com 1.10,2013-06-07 01:00:00,
2013-06-06 18:15:00,69.8,55.0,29.80,SSW,211,0.0,2.0,60,0.00,,,0.00,weatherlink.com 1.10,2013-06-07 01:15:00,
2013-06-06 18:30:00,68.4,55.0,29.81,SSE,148,0.0,2.0,62,0.00,,,0.00,weatherlink.com 1.10,2013-06-07 01:30:00,
2013-06-06 18:45:00,65.4,54.0,29.81,SSW,205,0.0,2.0,66,0.00,,,0.00,weatherlink.com 1.10,2013-06-07 01:45:00,
2013-06-06 19:00:00,62.6,53.0,29.81,SW,224,0.0,1.0,71,0.00,,,0.00,weatherlink.com 1.10,2013-06-07 02:00:00,
2013-06-06 19:15:00,61.1,53.0,29.81,SSW,206,0.0,3.0,74,0.00,,,0.00,weatherlink.com 1.10,2013-06-07 02:15:00,
2013-06-06 19:30:00,60.5,53.0,29.81,SW,221,0.0,1.0,75,0.00,,,0.00,weatherlink.com 1.10,2013-06-07 02:30:00,
2013-06-06 19:45:00,58.1,51.0,29.82,SW,230,0.0,2.0,78,0.00,,,0.00,weatherlink.com 1.10,2013-06-07 02:45:00,
2013-06-06 20:00:00,56.5,51.0,29.82,SW,222,0.0,2.0,81,0.00,,,0.00,weatherlink.com 1.10,2013-06-07 03:00:00,
2013-06-06 20:15:00,55.6,51.0,29.82,SW,218,0.0,2.0,83,0.00,,,0.00,weatherlink.com 1.10,2013-06-07 03:15:00,
2013-06-06 20:30:00,54.9,50.0,29.82,SSW,209,0.0,0.0,84,0.00,,,0.00,weatherlink.com 1.10,2013-06-07 03:30:00,
2013-06-06 20:45:00,54.2,50.0,29.83,SSW,208,0.0,1.0,86,0.00,,,0.00,weatherlink.com 1.10,2013-06-07 03:45:00,
2013-06-06 21:00:00,53.2,50.0,29.83,SSE,164,0.0,3.0,87,0.00,,,0.00,weatherlink.com 1.10,2013-06-07 04:00:00,
2013-06-06 21:15:00,52.2,49.0,29.84,SSE,168,0.0,4.0,89,0.00,,,0.00,weatherlink.com 1.10,2013-06-07 04:15:00,
2013-06-06 21:30:00,51.6,49.0,29.84,SSE,152,0.0,1.0,91,0.00,,,0.00,weatherlink.com 1.10,2013-06-07 04:30:00,
2013-06-06 21:45:00,51.5,49.0,29.84,SSE,150,0.0,2.0,91,0.00,,,0.00,weatherlink.com 1.10,2013-06-07 04:45:00,
2013-06-06 22:00:00,51.5,49.0,29.85,SSE,149,0.0,3.0,92,0.00,,,0.00,weatherlink.com 1.10,2013-06-07 05:00:00,
2013-06-06 22:15:00,51.6,49.0,29.85,SSE,153,0.0,3.0,92,0.00,,,0.00,weatherlink.com 1.10,2013-06-07 05:15:00,
2013-06-06 22:30:00,51.5,49.0,29.86,SSE,158,1.0,1.0,92,0.00,,,0.00,weatherlink.com 1.10,2013-06-07 05:30:00,
2013-06-06 22:45:00,51.6,49.0,29.86,SSE,158,0.0,0.0,92,0.00,,,0.00,weatherlink.com 1.10,2013-06-07 05:45:00,
2013-06-06 23:00:00,51.6,49.0,29.86,SSE,158,0.0,0.0,92,0.00,,,0.00,weatherlink.com 1.10,2013-06-07 06:00:00,
2013-06-06 23:15:00,51.4,49.0,29.85,SSE,163,0.0,0.0,92,0.00,,,0.00,weatherlink.com 1.10,2013-06-07 06:15:00,
2013-06-06 23:30:00,51.4,49.0,29.86,SSE,161,0.0,1.0,92,0.00,,,0.00,weatherlink.com 1.10,2013-06-07 06:30:00,
2013-06-06 23:45:00,51.3,49.0,29.86,SSE,165,0.0,0.0,93,0.00,,,0.00,weatherlink.com 1.10,2013-06-07 06:45:00,